Time;durP1;ratioP1;P1;durP2;ratioP2;P2;SDS_P1;SDS_P2;PMS_P1;PMS_P2;Temp;Humidity;BMP_temperature;BMP_pressure;BME280_temperature;BME280_humidity;BME280_pressure;Samples;Min_cycle;Max_cycle;Signal;HPM_P1;HPM_P2
2024/02/19 00:02:18;;;;;;;0.43;0.20;;;9.20;75.20;;;;;;7380443;19;20014;-73
2024/02/19 00:04:48;;;;;;;0.30;0.20;;;9.20;53.40;;;;;;7382192;19;20035;-73
2024/02/19 00:07:18;;;;;;;0.57;0.20;;;9.20;30.10;;;;;;7371936;19;20085;-73
2024/02/19 00:09:48;;;;;;;0.40;0.30;;;9.20;34.90;;;;;;7372103;19;20464;-73
2024/02/19 00:12:21;;;;;;;0.50;0.30;;;9.20;29.70;;;;;;7372833;19;20010;-73
2024/02/19 00:14:51;;;;;;;0.60;0.30;;;9.20;28.90;;;;;;7370962;19;20318;-73
2024/02/19 00:17:21;;;;;;;1.00;0.70;;;9.20;27.70;;;;;;7373112;19;20010;-73
2024/02/19 00:19:51;;;;;;;1.05;0.70;;;9.20;31.50;;;;;;7373051;19;20577;-73
2024/02/19 00:22:22;;;;;;;0.73;0.35;;;9.20;38.40;;;;;;7371447;19;20471;-74
2024/02/19 00:24:52;;;;;;;0.60;0.30;;;9.20;27.80;;;;;;7371850;19;20011;-73
2024/02/19 00:27:24;;;;;;;0.90;0.38;;;9.20;21.00;;;;;;7372858;19;20003;-73
2024/02/19 00:29:54;;;;;;;0.50;0.30;;;9.20;22.60;;;;;;7370029;19;20006;-74
2024/02/19 00:32:24;;;;;;;0.52;0.30;;;9.20;30.40;;;;;;7372240;19;20047;-73
2024/02/19 00:34:54;;;;;;;1.17;0.25;;;9.20;33.50;;;;;;7371602;19;20011;-74
2024/02/19 00:37:24;;;;;;;1.45;0.40;;;9.20;32.30;;;;;;7372627;19;20011;-73
2024/02/19 00:39:54;;;;;;;1.42;0.30;;;9.20;30.00;;;;;;7373065;19;20427;-74
2024/02/19 00:42:27;;;;;;;0.50;0.30;;;9.20;30.10;;;;;;7373128;19;20010;-74
2024/02/19 00:44:58;;;;;;;1.23;0.30;;;9.20;34.40;;;;;;7371309;19;20369;-74
2024/02/19 00:47:28;;;;;;;0.43;0.40;;;9.20;40.90;;;;;;7371626;19;20471;-73
2024/02/19 00:49:58;;;;;;;0.75;0.60;;;9.20;34.90;;;;;;7371738;19;20013;-73
2024/02/19 00:52:28;;;;;;;0.88;0.40;;;9.20;41.80;;;;;;7372053;19;20385;-74
2024/02/19 00:54:58;;;;;;;0.65;0.50;;;9.20;45.90;;;;;;7372661;19;20006;-74
2024/02/19 00:57:31;;;;;;;1.10;0.55;;;9.10;49.60;;;;;;7372279;19;20018;-74
2024/02/19 01:00:01;;;;;;;1.13;0.73;;;9.10;55.30;;;;;;7370938;19;20054;-73
2024/02/19 01:02:31;;;;;;;1.05;0.73;;;9.10;54.50;;;;;;7371359;19;20021;-74
2024/02/19 01:05:02;;;;;;;0.80;0.63;;;9.10;56.40;;;;;;7371990;19;20504;-74
2024/02/19 01:07:32;;;;;;;0.90;0.70;;;9.10;61.10;;;;;;7371570;19;20003;-74
2024/02/19 01:10:03;;;;;;;0.65;0.60;;;9.10;60.20;;;;;;7370415;19;20025;-74
2024/02/19 01:12:36;;;;;;;1.05;0.65;;;9.10;62.00;;;;;;7370972;19;20020;-74
2024/02/19 01:15:07;;;;;;;1.67;0.90;;;9.00;54.90;;;;;;7371449;19;20049;-74
2024/02/19 01:17:37;;;;;;;2.00;0.90;;;9.10;57.00;;;;;;7370781;19;20028;-73
2024/02/19 01:20:10;;;;;;;0.75;0.63;;;9.10;57.40;;;;;;7370221;19;20118;-74
2024/02/19 01:22:40;;;;;;;0.77;0.70;;;9.10;53.90;;;;;;7368948;19;20020;-74
2024/02/19 01:25:10;;;;;;;1.10;0.93;;;9.10;50.70;;;;;;7370330;19;20014;-73
2024/02/19 01:27:43;;;;;;;1.45;1.15;;;9.10;55.10;;;;;;7368837;19;20020;-72
2024/02/19 01:30:14;;;;;;;1.20;0.98;;;9.20;52.00;;;;;;7371246;19;20356;-72
2024/02/19 01:32:44;;;;;;;1.50;1.20;;;9.10;40.30;;;;;;7371828;19;20574;-73
2024/02/19 01:35:14;;;;;;;2.28;1.23;;;9.20;35.70;;;;;;7371281;19;20481;-72
2024/02/19 01:37:45;;;;;;;1.98;1.30;;;9.20;36.70;;;;;;7371929;19;20106;-72
2024/02/19 01:40:15;;;;;;;1.95;1.30;;;9.20;29.60;;;;;;7371920;19;20015;-72
2024/02/19 01:42:48;;;;;;;1.40;1.13;;;9.20;29.80;;;;;;7370496;19;20018;-72
2024/02/19 01:45:26;;;;;;;1.80;1.35;;;9.20;34.00;;;;;;7369583;19;20021;-72
2024/02/19 01:47:57;;;;;;;5.70;1.67;;;9.20;32.90;;;;;;7370596;19;20499;-72
2024/02/19 01:50:30;;;;;;;1.88;1.67;;;9.20;37.30;;;;;;7369519;19;20020;-73
2024/02/19 01:53:01;;;;;;;3.13;1.52;;;9.10;34.90;;;;;;7369256;19;20021;-73
2024/02/19 01:55:32;;;;;;;2.35;1.92;;;9.20;41.10;;;;;;7368270;19;20014;-72
2024/02/19 01:58:06;;;;;;;2.47;1.83;;;9.10;36.70;;;;;;7368901;19;20074;-72
2024/02/19 02:00:44;;;;;;;2.50;1.80;;;9.20;43.80;;;;;;7366499;19;20018;-72
2024/02/19 02:03:18;;;;;;;2.25;1.80;;;9.20;39.80;;;;;;7368475;19;20015;-74
2024/02/19 02:05:49;;;;;;;5.15;2.00;;;9.20;42.40;;;;;;7366896;19;20036;-73
2024/02/19 02:08:19;;;;;;;2.72;1.80;;;9.20;50.10;;;;;;7367839;19;20070;-73
2024/02/19 02:10:50;;;;;;;3.35;2.17;;;9.20;53.60;;;;;;7366476;19;20753;-73
2024/02/19 02:13:22;;;;;;;2.35;2.15;;;9.10;59.30;;;;;;7366584;19;20479;-73
2024/02/19 02:15:52;;;;;;;3.05;2.40;;;9.10;68.60;;;;;;7368112;19;20006;-73
2024/02/19 02:18:22;;;;;;;3.75;2.50;;;9.10;73.30;;;;;;7369114;19;20484;-73
2024/02/19 02:20:53;;;;;;;2.95;2.45;;;9.10;87.50;;;;;;7368982;19;20082;-73
2024/02/19 02:23:24;;;;;;;3.80;2.72;;;9.10;94.90;;;;;;7368143;19;20027;-73
2024/02/19 02:25:54;;;;;;;3.83;2.90;;;9.10;99.50;;;;;;7368616;19;20033;-73
2024/02/19 02:28:26;;;;;;;3.42;2.63;;;9.00;99.90;;;;;;7368798;19;20038;-73
2024/02/19 02:30:56;;;;;;;3.00;2.70;;;9.00;99.90;;;;;;7369477;19;20015;-73
2024/02/19 02:33:26;;;;;;;3.78;3.10;;;9.00;99.90;;;;;;7379407;19;20011;-73
2024/02/19 02:35:57;;;;;;;4.40;3.20;;;9.00;99.90;;;;;;7378766;19;20713;-73
2024/02/19 02:38:27;;;;;;;4.90;3.17;;;8.90;99.90;;;;;;7369345;19;20017;-73
2024/02/19 02:40:57;;;;;;;4.82;3.50;;;8.90;99.90;;;;;;7367533;19;20010;-73
2024/02/19 02:43:30;;;;;;;4.53;3.70;;;9.00;99.90;;;;;;7367578;19;20014;-73
2024/02/19 02:46:00;;;;;;;4.18;3.35;;;9.00;99.90;;;;;;7368067;19;20021;-73
2024/02/19 02:48:30;;;;;;;4.47;3.67;;;8.90;99.90;;;;;;7368359;19;20019;-73
2024/02/19 02:51:00;;;;;;;5.63;3.80;;;9.00;99.90;;;;;;7367342;19;20185;-73
2024/02/19 02:53:30;;;;;;;4.53;3.72;;;9.00;99.90;;;;;;7369531;19;20462;-73
2024/02/19 02:56:00;;;;;;;4.03;3.63;;;8.90;99.90;;;;;;7375576;19;20010;-73
2024/02/19 02:58:33;;;;;;;5.60;4.07;;;8.90;99.90;;;;;;7376007;19;20007;-73
2024/02/19 03:01:03;;;;;;;4.18;3.78;;;8.90;99.90;;;;;;7374772;19;20014;-73
2024/02/19 03:03:35;;;;;;;6.72;3.95;;;8.90;99.90;;;;;;7373895;19;20014;-73
2024/02/19 03:06:05;;;;;;;7.25;4.35;;;8.90;99.90;;;;;;7374112;19;20031;-73
2024/02/19 03:08:36;;;;;;;4.82;3.75;;;8.90;99.90;;;;;;7374785;19;20007;-74
2024/02/19 03:11:06;;;;;;;5.13;3.80;;;8.90;99.90;;;;;;7375093;19;20031;-74
2024/02/19 03:13:39;;;;;;;5.95;4.28;;;8.90;99.90;;;;;;7373980;19;20010;-74
2024/02/19 03:16:09;;;;;;;5.13;4.20;;;8.90;99.90;;;;;;7374346;19;20018;-76
2024/02/19 03:18:43;;;;;;;6.18;4.97;;;8.90;99.90;;;;;;7374810;19;20423;-76
2024/02/19 03:21:15;;;;;;;5.70;4.43;;;8.90;99.90;;;;;;7372895;19;20022;-74
2024/02/19 03:23:52;;;;;;;5.60;4.57;;;8.90;99.90;;;;;;7372616;19;20017;-73
2024/02/19 03:26:27;;;;;;;5.68;4.95;;;8.90;99.90;;;;;;7373380;19;20013;-74
2024/02/19 03:29:03;;;;;;;7.40;5.13;;;8.90;99.90;;;;;;7372929;19;20113;-74
2024/02/19 03:31:33;;;;;;;5.97;4.90;;;8.90;99.90;;;;;;7374313;19;20006;-74
2024/02/19 03:34:03;;;;;;;6.03;5.00;;;8.90;99.90;;;;;;7372750;19;20006;-74
2024/02/19 03:36:33;;;;;;;7.80;5.20;;;8.90;99.90;;;;;;7372750;19;20421;-74
2024/02/19 03:39:04;;;;;;;6.85;5.25;;;8.90;99.90;;;;;;7373664;19;20265;-74
2024/02/19 03:41:35;;;;;;;6.68;5.50;;;8.90;99.90;;;;;;7372307;19;20061;-74
2024/02/19 03:44:07;;;;;;;7.65;6.10;;;8.90;99.90;;;;;;7373048;19;20495;-74
2024/02/19 03:46:37;;;;;;;7.60;5.25;;;8.90;99.90;;;;;;7373114;19;20501;-74
2024/02/19 03:49:07;;;;;;;6.65;5.80;;;9.00;99.90;;;;;;7372503;19;20013;-74
2024/02/19 03:51:37;;;;;;;7.40;6.53;;;9.00;99.90;;;;;;7373198;19;20006;-75
2024/02/19 03:54:08;;;;;;;8.85;6.63;;;8.90;99.90;;;;;;7372869;19;20011;-74
2024/02/19 03:56:40;;;;;;;8.20;6.30;;;8.90;99.90;;;;;;7372276;19;20015;-74
2024/02/19 03:59:13;;;;;;;12.57;6.60;;;8.90;99.90;;;;;;7373199;19;20587;-74
2024/02/19 04:01:43;;;;;;;6.93;5.70;;;8.90;99.90;;;;;;7368976;19;20031;-74
2024/02/19 04:04:16;;;;;;;7.20;5.15;;;9.00;99.90;;;;;;7371718;19;20007;-74
2024/02/19 04:06:46;;;;;;;6.38;5.57;;;9.00;99.90;;;;;;7371608;19;20006;-74
2024/02/19 04:09:17;;;;;;;6.93;4.55;;;9.00;99.90;;;;;;7370392;19;20517;-74
2024/02/19 04:11:47;;;;;;;7.18;4.82;;;9.00;99.90;;;;;;7371233;19;20014;-73
2024/02/19 04:14:19;;;;;;;5.30;4.53;;;9.00;99.90;;;;;;7370016;19;20382;-72
2024/02/19 04:16:49;;;;;;;6.20;4.32;;;9.00;99.90;;;;;;7373008;19;20106;-73
2024/02/19 04:19:19;;;;;;;6.65;4.68;;;9.00;99.90;;;;;;7371293;19;20002;-73
2024/02/19 04:21:49;;;;;;;7.00;4.63;;;9.00;99.90;;;;;;7371704;19;20105;-73
2024/02/19 04:24:19;;;;;;;8.75;5.22;;;9.00;99.90;;;;;;7371229;19;20098;-73
2024/02/19 04:26:49;;;;;;;6.38;4.90;;;9.00;99.90;;;;;;7370957;19;20018;-73
2024/02/19 04:29:22;;;;;;;6.50;5.07;;;9.00;99.90;;;;;;7370920;19;20011;-73
2024/02/19 04:31:52;;;;;;;6.40;5.57;;;9.00;99.90;;;;;;7368355;19;20366;-73
2024/02/19 04:34:22;;;;;;;7.72;5.75;;;9.00;99.90;;;;;;7370855;19;20018;-73
2024/02/19 04:36:52;;;;;;;6.93;5.53;;;9.00;99.90;;;;;;7370650;19;20018;-73
2024/02/19 04:39:22;;;;;;;7.32;4.63;;;9.10;99.90;;;;;;7370667;19;20069;-73
2024/02/19 04:41:52;;;;;;;6.88;4.75;;;9.00;99.90;;;;;;7370421;19;20006;-73
2024/02/19 04:44:25;;;;;;;6.00;4.38;;;9.00;99.90;;;;;;7370292;19;20015;-73
2024/02/19 04:46:55;;;;;;;6.22;4.60;;;9.10;99.90;;;;;;7369631;19;20030;-73
2024/02/19 04:49:25;;;;;;;10.73;5.13;;;9.10;99.90;;;;;;7368544;19;20022;-73
2024/02/19 04:51:55;;;;;;;6.93;5.18;;;9.10;99.90;;;;;;7369457;19;20523;-73
2024/02/19 04:54:25;;;;;;;7.95;5.07;;;9.10;99.90;;;;;;7369794;19;20036;-72
2024/02/19 04:56:55;;;;;;;7.80;5.53;;;9.10;99.90;;;;;;7370399;19;20398;-73
2024/02/19 04:59:29;;;;;;;8.50;6.05;;;9.10;99.90;;;;;;7369911;19;20067;-73
2024/02/19 05:01:59;;;;;;;;;;;9.10;99.90;;;;;;7371380;19;20011;-72
2024/02/19 05:04:30;;;;;;;8.68;5.13;;;9.10;99.90;;;;;;7378693;19;19919;-71
2024/02/19 05:07:01;;;;;;;9.10;5.22;;;9.10;99.90;;;;;;7374081;19;20046;-73
2024/02/19 05:09:31;;;;;;;7.88;5.43;;;9.00;99.90;;;;;;7370449;19;20018;-73
2024/02/19 05:12:01;;;;;;;6.03;5.40;;;9.00;99.90;;;;;;7369910;19;20022;-72
2024/02/19 05:14:34;;;;;;;6.70;5.25;;;9.00;93.00;;;;;;7369450;19;20081;-72
2024/02/19 05:17:04;;;;;;;7.10;5.05;;;9.00;90.20;;;;;;7369404;19;20438;-72
2024/02/19 05:19:34;;;;;;;8.85;5.55;;;9.00;89.20;;;;;;7369662;19;20048;-72
2024/02/19 05:22:05;;;;;;;8.35;5.20;;;9.00;79.20;;;;;;7367836;19;20557;-72
2024/02/19 05:24:35;;;;;;;8.55;5.60;;;9.00;72.90;;;;;;7367819;19;20018;-72
2024/02/19 05:27:05;;;;;;;8.75;5.72;;;9.00;67.20;;;;;;7370364;19;20006;-72
2024/02/19 05:29:37;;;;;;;8.27;5.75;;;8.90;57.80;;;;;;7369904;19;20035;-72
2024/02/19 05:32:08;;;;;;;8.93;5.20;;;8.90;56.20;;;;;;7371841;19;20351;-72
2024/02/19 05:34:38;;;;;;;6.85;5.70;;;8.90;42.80;;;;;;7369990;19;20006;-73
2024/02/19 05:37:08;;;;;;;12.20;6.00;;;8.90;46.40;;;;;;7369749;19;20015;-72
2024/02/19 05:39:39;;;;;;;8.60;5.25;;;8.90;47.70;;;;;;7372531;19;20014;-72
2024/02/19 05:42:10;;;;;;;8.10;5.55;;;8.90;46.10;;;;;;7368550;19;20127;-72
2024/02/19 05:44:42;;;;;;;7.50;5.07;;;8.90;40.80;;;;;;7367819;19;20375;-71
2024/02/19 05:47:12;;;;;;;8.93;5.18;;;8.90;27.80;;;;;;7368811;19;20007;-73
2024/02/19 05:49:43;;;;;;;8.27;4.95;;;8.80;21.70;;;;;;7368181;19;20020;-73
2024/02/19 05:52:15;;;;;;;9.70;4.75;;;8.80;19.80;;;;;;7369143;19;20482;-73
2024/02/19 05:54:46;;;;;;;7.75;3.92;;;8.80;14.80;;;;;;7367541;19;20050;-74
2024/02/19 05:57:17;;;;;;;7.95;4.25;;;8.80;13.00;;;;;;7369545;19;20020;-72
2024/02/19 05:59:49;;;;;;;7.13;4.15;;;8.80;6.50;;;;;;7367776;19;20031;-72
2024/02/19 06:02:19;;;;;;;11.23;4.60;;;8.80;8.30;;;;;;7369499;19;20014;-73
2024/02/19 06:04:49;;;;;;;5.40;4.18;;;8.80;9.70;;;;;;7367082;19;20010;-73
2024/02/19 06:07:20;;;;;;;7.28;4.63;;;8.80;6.40;;;;;;7367371;19;20101;-74
2024/02/19 06:09:50;;;;;;;8.73;4.20;;;8.80;7.10;;;;;;7367693;19;20014;-73
2024/02/19 06:12:20;;;;;;;7.28;4.43;;;8.80;6.10;;;;;;7368555;19;20066;-73
2024/02/19 06:14:53;;;;;;;12.57;4.07;;;8.80;5.00;;;;;;7367535;19;20033;-73
2024/02/19 06:17:23;;;;;;;13.05;4.72;;;8.80;2.90;;;;;;7367263;19;20067;-73
2024/02/19 06:19:54;;;;;;;4.00;2.90;;;8.70;2.60;;;;;;7368214;19;20034;-73
2024/02/19 06:22:24;;;;;;;4.75;3.17;;;8.80;1.00;;;;;;7368709;19;20007;-73
2024/02/19 06:24:54;;;;;;;6.18;3.15;;;8.80;1.00;;;;;;7366738;19;20031;-73
2024/02/19 06:27:24;;;;;;;6.45;3.15;;;8.80;1.00;;;;;;7367597;19;20014;-73
2024/02/19 06:29:56;;;;;;;5.43;2.67;;;8.80;1.00;;;;;;7374033;19;20017;-73
2024/02/19 06:32:26;;;;;;;5.85;2.70;;;8.80;1.00;;;;;;7376048;19;20086;-74
2024/02/19 06:34:56;;;;;;;7.05;3.10;;;8.80;1.00;;;;;;7371538;19;20002;-72
2024/02/19 06:37:26;;;;;;;5.38;3.15;;;8.80;1.00;;;;;;7372955;19;20491;-72
2024/02/19 06:39:57;;;;;;;6.18;2.92;;;8.80;1.00;;;;;;7373375;19;20619;-74
2024/02/19 06:42:27;;;;;;;7.55;3.50;;;8.80;1.00;;;;;;7372622;19;20015;-73
2024/02/19 06:44:59;;;;;;;4.60;2.50;;;8.80;1.00;;;;;;7373000;19;20057;-72
2024/02/19 06:47:29;;;;;;;4.50;2.60;;;8.70;1.00;;;;;;7372694;19;20007;-72
2024/02/19 06:49:59;;;;;;;5.65;3.13;;;8.80;1.00;;;;;;7371985;19;20006;-72
2024/02/19 06:52:29;;;;;;;4.97;3.35;;;8.70;1.00;;;;;;7372703;19;20014;-71
2024/02/19 06:54:59;;;;;;;3.80;2.50;;;8.70;1.00;;;;;;7371081;19;20006;-73
2024/02/19 06:57:29;;;;;;;5.53;2.90;;;8.70;1.00;;;;;;7374025;19;20017;-72
2024/02/19 07:00:02;;;;;;;3.95;2.65;;;8.70;1.00;;;;;;7373108;19;20018;-74
2024/02/19 07:02:33;;;;;;;4.13;2.47;;;8.80;1.00;;;;;;7373054;19;20010;-72
2024/02/19 07:05:05;;;;;;;6.22;2.83;;;8.80;1.00;;;;;;7373470;19;20018;-72
2024/02/19 07:07:37;;;;;;;3.50;2.65;;;8.80;1.00;;;;;;7373717;19;20403;-72
2024/02/19 07:10:08;;;;;;;5.57;2.92;;;8.80;1.00;;;;;;7372464;19;20040;-72
2024/02/19 07:12:38;;;;;;;5.80;2.45;;;8.80;1.00;;;;;;7371589;19;20086;-72
2024/02/19 07:15:12;;;;;;;4.18;1.98;;;8.80;1.00;;;;;;7373306;19;20022;-72
2024/02/19 07:17:42;;;;;;;3.53;2.40;;;8.90;1.00;;;;;;7374722;19;20114;-73
2024/02/19 07:20:12;;;;;;;4.80;2.80;;;8.90;1.00;;;;;;7372917;19;20022;-73
2024/02/19 07:22:43;;;;;;;4.90;2.30;;;8.80;1.00;;;;;;7371813;19;20014;-72
2024/02/19 07:25:13;;;;;;;5.05;2.42;;;8.80;1.00;;;;;;7370874;19;20013;-73
2024/02/19 07:27:50;;;;;;;5.47;2.60;;;8.80;1.00;;;;;;7375329;19;20067;-73
2024/02/19 07:30:23;;;;;;;3.85;2.20;;;8.80;1.00;;;;;;7373425;19;20006;-72
2024/02/19 07:32:53;;;;;;;7.15;3.15;;;8.80;1.00;;;;;;7375698;19;20036;-73
2024/02/19 07:35:24;;;;;;;3.92;2.20;;;8.80;1.00;;;;;;7388526;19;20040;-72
2024/02/19 07:37:53;;;;;;;4.13;2.33;;;8.90;1.00;;;;;;7387417;19;20039;-72
2024/02/19 07:40:23;;;;;;;4.13;2.28;;;8.90;1.00;;;;;;7372004;19;20089;-73
2024/02/19 07:42:54;;;;;;;6.80;1.95;;;8.90;1.00;;;;;;7374528;19;20477;-74
2024/02/19 07:45:26;;;;;;;5.25;1.95;;;8.80;1.00;;;;;;7373774;19;20023;-73
2024/02/19 07:47:56;;;;;;;3.28;2.00;;;8.80;1.00;;;;;;7372489;19;20447;-73
2024/02/19 07:50:26;;;;;;;3.33;1.90;;;8.80;1.00;;;;;;7372247;19;20015;-74
2024/02/19 07:52:56;;;;;;;4.97;1.95;;;8.90;1.00;;;;;;7376852;19;20018;-73
2024/02/19 07:55:27;;;;;;;4.38;1.58;;;8.80;1.00;;;;;;7383423;19;20023;-73
2024/02/19 07:57:57;;;;;;;5.72;1.90;;;8.80;1.00;;;;;;7372501;19;20371;-73
2024/02/19 08:00:30;;;;;;;6.10;1.90;;;8.90;1.00;;;;;;7373067;19;20014;-77
2024/02/19 08:03:01;;;;;;;5.53;2.28;;;8.90;1.00;;;;;;7369591;19;20006;-73
2024/02/19 08:05:31;;;;;;;4.05;2.00;;;8.90;1.00;;;;;;7371839;19;20006;-71
2024/02/19 08:08:01;;;;;;;4.35;1.83;;;8.90;1.00;;;;;;7372061;19;20058;-72
2024/02/19 08:10:31;;;;;;;3.90;1.80;;;8.90;1.00;;;;;;7370911;19;20021;-73
2024/02/19 08:13:01;;;;;;;3.17;1.77;;;8.90;1.00;;;;;;7370626;19;20011;-72
2024/02/19 08:15:37;;;;;;;4.28;1.75;;;8.90;1.00;;;;;;7374765;19;20010;-72
2024/02/19 08:18:08;;;;;;;3.05;1.60;;;8.90;1.00;;;;;;7368341;19;20036;-72
2024/02/19 08:20:39;;;;;;;6.95;1.73;;;8.90;1.00;;;;;;7369333;19;20010;-73
2024/02/19 08:23:10;;;;;;;6.40;2.05;;;8.90;1.00;;;;;;7370304;19;20014;-72
2024/02/19 08:25:40;;;;;;;5.07;1.60;;;9.00;1.00;;;;;;7374662;19;20021;-72
2024/02/19 08:28:10;;;;;;;4.63;1.60;;;9.00;1.00;;;;;;7368094;19;20025;-73
2024/02/19 08:30:43;;;;;;;2.80;1.50;;;9.10;1.00;;;;;;7370910;19;20006;-73
2024/02/19 08:33:13;;;;;;;5.18;2.00;;;9.00;1.00;;;;;;7370591;19;20014;-71
2024/02/19 08:35:43;;;;;;;4.20;1.83;;;9.00;1.00;;;;;;7370328;19;20039;-72
2024/02/19 08:38:15;;;;;;;3.08;1.60;;;9.10;1.00;;;;;;7375077;19;20093;-72
2024/02/19 08:40:45;;;;;;;8.15;1.85;;;9.10;1.00;;;;;;7372288;19;20436;-71
2024/02/19 08:43:15;;;;;;;2.60;1.50;;;9.10;1.00;;;;;;7369644;19;20014;-72
2024/02/19 08:45:48;;;;;;;5.00;1.60;;;9.00;1.00;;;;;;7370913;19;20010;-72
2024/02/19 08:48:19;;;;;;;4.45;1.45;;;9.10;1.00;;;;;;7369571;19;20402;-73
2024/02/19 08:50:52;;;;;;;4.32;1.60;;;9.10;1.00;;;;;;7367900;19;20027;-72
2024/02/19 08:53:23;;;;;;;5.68;1.52;;;9.10;1.00;;;;;;7367198;19;20379;-71
2024/02/19 08:55:54;;;;;;;3.47;1.25;;;9.10;1.00;;;;;;7369525;19;20010;-73
2024/02/19 08:58:25;;;;;;;7.15;1.80;;;9.20;1.00;;;;;;7371593;19;20025;-70
2024/02/19 09:00:59;;;;;;;3.65;2.10;;;9.30;1.00;;;;;;7374477;19;20018;-71
2024/02/19 09:03:29;;;;;;;6.22;1.52;;;9.40;1.00;;;;;;7378857;19;20010;-71
2024/02/19 09:05:59;;;;;;;5.82;1.70;;;9.30;1.00;;;;;;7369838;19;20002;-72
2024/02/19 09:08:30;;;;;;;7.70;2.00;;;9.20;1.00;;;;;;7370998;19;20014;-70
2024/02/19 09:11:00;;;;;;;4.18;1.60;;;9.30;1.00;;;;;;7372888;19;20016;-71
2024/02/19 09:13:30;;;;;;;9.70;2.05;;;9.30;1.00;;;;;;7368328;19;20010;-72
2024/02/19 09:16:02;;;;;;;4.07;1.80;;;9.40;1.00;;;;;;7368657;19;20032;-72
2024/02/19 09:18:32;;;;;;;4.18;1.58;;;9.30;1.00;;;;;;7368936;19;20424;-73
2024/02/19 09:21:04;;;;;;;5.00;1.50;;;9.40;1.00;;;;;;7370270;19;20022;-72
2024/02/19 09:23:34;;;;;;;6.72;1.70;;;9.40;1.00;;;;;;7367681;19;20119;-73
2024/02/19 09:26:04;;;;;;;4.47;1.98;;;9.40;1.00;;;;;;7368975;19;20479;-72
2024/02/19 09:28:34;;;;;;;5.50;1.80;;;9.40;1.00;;;;;;7369776;19;20011;-72
2024/02/19 09:31:06;;;;;;;7.13;1.67;;;9.40;1.00;;;;;;7369206;19;20011;-72
2024/02/19 09:33:37;;;;;;;5.10;1.50;;;9.50;1.00;;;;;;7368617;19;20471;-72
2024/02/19 09:36:12;;;;;;;7.85;1.88;;;9.50;1.00;;;;;;7368872;19;20340;-73
2024/02/19 09:38:42;;;;;;;8.30;2.00;;;9.70;1.00;;;;;;7369362;19;20010;-72
2024/02/19 09:41:12;;;;;;;6.35;1.80;;;9.70;1.00;;;;;;7368979;19;20019;-72
2024/02/19 09:43:42;;;;;;;3.50;1.77;;;9.70;1.00;;;;;;7368533;19;20823;-72
2024/02/19 09:46:19;;;;;;;6.80;1.90;;;9.90;1.00;;;;;;7367966;19;20359;-72
2024/02/19 09:48:50;;;;;;;4.47;1.65;;;10.10;1.00;;;;;;7368022;19;20010;-72
2024/02/19 09:51:22;;;;;;;7.72;3.00;;;10.00;1.00;;;;;;7369192;19;20010;-71
2024/02/19 09:54:06;;;;;;;9.50;2.47;;;10.00;1.00;;;;;;7363353;19;20011;-72
2024/02/19 09:56:37;;;;;;;6.78;1.95;;;10.20;1.00;;;;;;7368031;19;20002;-71
2024/02/19 09:59:08;;;;;;;4.47;1.92;;;10.10;1.00;;;;;;7368225;19;20010;-72
2024/02/19 10:01:41;;;;;;;8.45;2.25;;;10.20;1.00;;;;;;7369258;19;20057;-72
2024/02/19 10:04:14;;;;;;;5.75;1.65;;;9.90;1.00;;;;;;7381843;19;20010;-72
2024/02/19 10:06:45;;;;;;;3.83;1.20;;;9.80;1.00;;;;;;7380978;19;20015;-72
2024/02/19 10:09:16;;;;;;;2.95;1.42;;;9.80;1.00;;;;;;7373778;19;20010;-72
2024/02/19 10:11:47;;;;;;;4.40;1.45;;;9.70;1.00;;;;;;7375054;19;20021;-72
2024/02/19 10:14:17;;;;;;;5.72;2.33;;;9.90;1.00;;;;;;7372884;19;20018;-72
2024/02/19 10:16:54;;;;;;;4.20;1.67;;;9.80;1.00;;;;;;7374605;19;20043;-72
2024/02/19 10:19:25;;;;;;;5.63;1.58;;;10.00;1.00;;;;;;7374478;19;20141;-72
2024/02/19 10:21:56;;;;;;;8.93;1.58;;;9.90;1.00;;;;;;7375512;19;20025;-72
2024/02/19 10:24:26;;;;;;;5.43;1.60;;;9.80;1.00;;;;;;7370276;19;20023;-74
2024/02/19 10:26:56;;;;;;;5.85;1.50;;;9.80;1.00;;;;;;7375713;19;20015;-72
2024/02/19 10:29:28;;;;;;;6.18;1.80;;;9.80;1.00;;;;;;7370874;19;20010;-72
2024/02/19 10:32:00;;;;;;;4.25;1.40;;;9.70;1.00;;;;;;7372382;19;20094;-72
2024/02/19 10:34:31;;;;;;;3.40;1.63;;;9.70;1.00;;;;;;7372705;19;20852;-72
2024/02/19 10:37:03;;;;;;;4.05;1.63;;;9.70;1.00;;;;;;7373992;19;20018;-72
2024/02/19 10:39:33;;;;;;;7.13;1.88;;;9.50;1.00;;;;;;7374317;19;20368;-72
2024/02/19 10:42:04;;;;;;;5.78;1.63;;;9.40;1.00;;;;;;7374113;19;22655;-72
2024/02/19 10:44:35;;;;;;;6.65;1.60;;;9.40;1.00;;;;;;7373363;19;20519;-72
2024/02/19 10:47:09;;;;;;;8.35;1.75;;;9.30;1.00;;;;;;7373801;19;20010;-72
2024/02/19 10:49:39;;;;;;;7.45;1.52;;;9.40;1.00;;;;;;7373983;19;20232;-71
2024/02/19 10:52:09;;;;;;;4.40;1.67;;;9.40;1.00;;;;;;7373901;19;20018;-72
2024/02/19 10:54:45;;;;;;;4.07;1.55;;;9.60;1.00;;;;;;7372371;19;20047;-73
2024/02/19 10:57:30;;;;;;;7.28;2.00;;;9.80;1.00;;;;;;7370650;19;20010;-71
2024/02/19 11:00:08;;;;;;;3.30;1.77;;;10.00;1.00;;;;;;7372336;19;20011;-73
2024/02/19 11:02:41;;;;;;;4.88;1.63;;;9.90;1.00;;;;;;7370227;19;20015;-72
2024/02/19 11:05:13;;;;;;;7.40;1.77;;;10.10;1.00;;;;;;7372795;19;20090;-72
2024/02/19 11:07:43;;;;;;;4.72;1.63;;;10.00;1.00;;;;;;7373342;19;20467;-72
2024/02/19 11:10:13;;;;;;;5.75;1.70;;;9.90;1.00;;;;;;7372261;19;20098;-72
2024/02/19 11:12:44;;;;;;;11.43;1.67;;;10.10;1.00;;;;;;7372062;19;20014;-72
2024/02/19 11:15:18;;;;;;;7.90;2.00;;;10.20;1.00;;;;;;7370442;19;20018;-72
2024/02/19 11:17:55;;;;;;;6.05;2.45;;;10.50;1.00;;;;;;7372948;19;20010;-72
2024/02/19 11:20:28;;;;;;;3.53;1.88;;;10.20;1.00;;;;;;7372152;19;20014;-72
2024/02/19 11:22:59;;;;;;;6.15;1.88;;;10.10;1.00;;;;;;7371167;19;20526;-72
2024/02/19 11:25:29;;;;;;;4.05;1.45;;;10.40;1.00;;;;;;7373151;19;20081;-72
2024/02/19 11:28:02;;;;;;;6.65;1.52;;;10.30;1.00;;;;;;7373612;19;20039;-72
2024/02/19 11:30:32;;;;;;;5.60;1.25;;;10.30;1.00;;;;;;7371175;19;20531;-72
2024/02/19 11:33:06;;;;;;;7.07;1.45;;;10.20;1.00;;;;;;7370891;19;20006;-72
2024/02/19 11:35:37;;;;;;;5.05;1.50;;;10.20;1.00;;;;;;7372556;19;20555;-70
2024/02/19 11:38:08;;;;;;;3.03;1.60;;;10.00;1.00;;;;;;7373005;19;20514;-71
2024/02/19 11:40:38;;;;;;;5.65;1.80;;;9.90;1.00;;;;;;7374333;19;20011;-71
2024/02/19 11:43:08;;;;;;;4.10;1.60;;;10.00;1.00;;;;;;7372645;19;20040;-71
2024/02/19 11:45:39;;;;;;;8.00;1.80;;;10.10;1.00;;;;;;7372939;19;20011;-71
2024/02/19 11:48:12;;;;;;;3.63;1.52;;;10.10;1.00;;;;;;7373098;19;20010;-71
2024/02/19 11:50:45;;;;;;;6.47;1.70;;;10.30;1.00;;;;;;7370617;19;20069;-72
2024/02/19 11:53:16;;;;;;;5.70;1.40;;;10.20;1.00;;;;;;7371027;19;20014;-72
2024/02/19 11:55:46;;;;;;;3.38;1.20;;;10.60;1.00;;;;;;7371081;19;20021;-71
2024/02/19 11:58:16;;;;;;;5.15;2.60;;;10.70;1.00;;;;;;7371104;19;20010;-72
2024/02/19 12:00:51;;;;;;;6.38;1.70;;;10.80;1.00;;;;;;7371762;19;20588;-73
2024/02/19 12:03:26;;;;;;;7.32;1.38;;;10.30;1.00;;;;;;7371219;19;20050;-72
2024/02/19 12:06:00;;;;;;;14.02;1.90;;;10.40;1.00;;;;;;7371393;19;20030;-72
2024/02/19 12:08:31;;;;;;;9.00;1.98;;;10.40;1.00;;;;;;7371072;19;20351;-72
2024/02/19 12:11:02;;;;;;;5.43;1.25;;;10.50;1.00;;;;;;7370927;19;20534;-72
2024/02/19 12:13:35;;;;;;;2.85;1.35;;;10.80;1.00;;;;;;7370625;19;20010;-74
2024/02/19 12:16:06;;;;;;;3.20;1.40;;;10.40;1.00;;;;;;7371357;19;20038;-72
2024/02/19 12:18:40;;;;;;;3.08;1.42;;;10.60;1.00;;;;;;7371275;19;20260;-71
2024/02/19 12:21:10;;;;;;;6.33;1.50;;;10.80;1.00;;;;;;7370512;19;20033;-71
2024/02/19 12:23:42;;;;;;;4.07;1.13;;;10.90;1.00;;;;;;7370685;19;20039;-72
2024/02/19 12:26:13;;;;;;;4.55;1.50;;;10.90;1.00;;;;;;7368850;19;20022;-73
2024/02/19 12:28:43;;;;;;;5.68;1.65;;;11.10;1.00;;;;;;7369795;19;20392;-72
2024/02/19 12:31:14;;;;;;;4.65;1.35;;;11.10;1.00;;;;;;7371493;19;20014;-71
2024/02/19 12:33:47;;;;;;;4.50;1.30;;;11.10;1.00;;;;;;7374270;19;20014;-71
2024/02/19 12:36:18;;;;;;;4.68;1.10;;;11.00;1.00;;;;;;7374792;19;20014;-72
2024/02/19 12:38:50;;;;;;;5.35;1.52;;;11.10;1.00;;;;;;7368164;19;20538;-72
2024/02/19 12:41:20;;;;;;;6.18;2.70;;;11.30;1.00;;;;;;7367851;19;20017;-72
2024/02/19 12:43:51;;;;;;;3.20;1.40;;;11.60;1.00;;;;;;7366420;19;20017;-72
2024/02/19 12:46:21;;;;;;;10.30;1.85;;;11.60;1.00;;;;;;7367457;19;20012;-72
2024/02/19 12:48:57;;;;;;;3.97;1.10;;;11.60;1.00;;;;;;7367334;19;20006;-72
2024/02/19 12:51:35;;;;;;;3.80;1.15;;;11.70;1.00;;;;;;7368631;19;20058;-71
2024/02/19 12:54:06;;;;;;;10.68;1.80;;;11.50;1.00;;;;;;7367421;19;20377;-72
2024/02/19 12:56:36;;;;;;;3.97;1.00;;;11.60;1.00;;;;;;7368025;19;20075;-71
2024/02/19 12:59:06;;;;;;;5.03;1.38;;;11.50;1.00;;;;;;7367101;19;20014;-72
2024/02/19 13:01:36;;;;;;;2.83;0.85;;;11.60;1.00;;;;;;7369092;19;20026;-72
2024/02/19 13:04:09;;;;;;;4.10;1.10;;;11.60;1.00;;;;;;7368205;19;20018;-72
2024/02/19 13:06:40;;;;;;;4.05;1.27;;;11.60;1.00;;;;;;7368142;19;20014;-72
2024/02/19 13:09:10;;;;;;;5.00;1.15;;;11.50;1.00;;;;;;7367006;19;20519;-72
2024/02/19 13:11:41;;;;;;;4.72;1.10;;;11.80;1.00;;;;;;7367061;19;20014;-74
2024/02/19 13:14:11;;;;;;;5.55;1.30;;;11.30;1.00;;;;;;7366815;19;20160;-72
2024/02/19 13:16:41;;;;;;;5.55;1.60;;;11.20;1.00;;;;;;7366813;19;20106;-73
2024/02/19 13:19:17;;;;;;;7.68;1.30;;;11.50;1.00;;;;;;7368200;19;20448;-72
2024/02/19 13:21:47;;;;;;;2.38;1.17;;;11.40;1.00;;;;;;7367248;19;20006;-70